Saint George, Bermuda
Current Conditions -  °F | °C
As of 6:55 AM on Thursday 27 Nov 2014 (Local Time) from TXKF Reporting Station
Rain Showers Rain Showers  
Wind Chill: 73°   Ceiling: 4700
Heat Index: 73°   Visibility: 6mi
Dew Point: 70°   Wind: 20mph
Humidity: 88%   Direction: 200°SSW
Pressure: 30.06"   Gusts: NA
Location:  32.37°N, 64.67°W
Report Text: TXKF 270955Z 20017KT 9999 VCSH FEW013 SCT033 BKN047BKN300 23/21 Q1018 RMK WND EST
Loading
Personal Weather Stations






























Interactive Weather Map New forecast layout! Learn more

10-Day Weather Forecast

Advertisements
Track Severe Weather on mobile